sensor_id;sensor_type;location;lat;lon;timestamp;P1;durP1;ratioP1;P2;durP2;ratioP2
2470;SDS011;1246;53.558;9.940;2022-07-24T00:01:35;8.27;;;7.43;;
2470;SDS011;1246;53.558;9.940;2022-07-24T00:04:02;7.20;;;6.60;;
2470;SDS011;1246;53.558;9.940;2022-07-24T00:06:28;7.47;;;6.87;;
2470;SDS011;1246;53.558;9.940;2022-07-24T00:08:53;8.80;;;6.90;;
2470;SDS011;1246;53.558;9.940;2022-07-24T00:11:19;9.43;;;6.80;;
2470;SDS011;1246;53.558;9.940;2022-07-24T00:13:44;8.03;;;6.80;;
2470;SDS011;1246;53.558;9.940;2022-07-24T00:16:09;7.47;;;6.67;;
2470;SDS011;1246;53.558;9.940;2022-07-24T00:18:35;8.33;;;7.00;;
2470;SDS011;1246;53.558;9.940;2022-07-24T00:21:01;8.07;;;7.27;;
2470;SDS011;1246;53.558;9.940;2022-07-24T00:23:26;7.93;;;7.33;;
2470;SDS011;1246;53.558;9.940;2022-07-24T00:25:52;7.73;;;6.80;;
2470;SDS011;1246;53.558;9.940;2022-07-24T00:28:18;8.10;;;7.00;;
2470;SDS011;1246;53.558;9.940;2022-07-24T00:30:44;7.60;;;7.00;;
2470;SDS011;1246;53.558;9.940;2022-07-24T00:33:09;7.37;;;6.67;;
2470;SDS011;1246;53.558;9.940;2022-07-24T00:35:35;8.60;;;6.77;;
2470;SDS011;1246;53.558;9.940;2022-07-24T00:38:01;6.80;;;6.20;;
2470;SDS011;1246;53.558;9.940;2022-07-24T00:40:26;7.97;;;7.13;;
2470;SDS011;1246;53.558;9.940;2022-07-24T00:42:52;7.90;;;7.20;;
2470;SDS011;1246;53.558;9.940;2022-07-24T00:45:17;7.97;;;7.17;;
2470;SDS011;1246;53.558;9.940;2022-07-24T00:47:42;7.87;;;7.17;;
2470;SDS011;1246;53.558;9.940;2022-07-24T00:50:08;8.10;;;7.23;;
2470;SDS011;1246;53.558;9.940;2022-07-24T00:52:34;7.37;;;6.67;;
2470;SDS011;1246;53.558;9.940;2022-07-24T00:54:59;7.23;;;6.63;;
2470;SDS011;1246;53.558;9.940;2022-07-24T00:57:25;9.40;;;7.10;;
2470;SDS011;1246;53.558;9.940;2022-07-24T00:59:50;11.30;;;7.00;;
2470;SDS011;1246;53.558;9.940;2022-07-24T01:02:16;7.60;;;6.90;;
2470;SDS011;1246;53.558;9.940;2022-07-24T01:04:42;7.47;;;6.60;;
2470;SDS011;1246;53.558;9.940;2022-07-24T01:07:07;7.63;;;6.47;;
2470;SDS011;1246;53.558;9.940;2022-07-24T01:09:32;6.47;;;5.87;;
2470;SDS011;1246;53.558;9.940;2022-07-24T01:11:58;7.27;;;6.67;;
2470;SDS011;1246;53.558;9.940;2022-07-24T01:14:25;7.00;;;6.30;;
2470;SDS011;1246;53.558;9.940;2022-07-24T01:16:50;6.97;;;6.37;;
2470;SDS011;1246;53.558;9.940;2022-07-24T01:19:16;7.40;;;6.73;;
2470;SDS011;1246;53.558;9.940;2022-07-24T01:21:45;7.17;;;6.37;;
2470;SDS011;1246;53.558;9.940;2022-07-24T01:24:15;8.27;;;6.67;;
2470;SDS011;1246;53.558;9.940;2022-07-24T01:26:40;7.40;;;6.70;;
2470;SDS011;1246;53.558;9.940;2022-07-24T01:29:06;6.33;;;5.83;;
2470;SDS011;1246;53.558;9.940;2022-07-24T01:31:31;6.43;;;5.77;;
2470;SDS011;1246;53.558;9.940;2022-07-24T01:33:57;6.60;;;6.00;;
2470;SDS011;1246;53.558;9.940;2022-07-24T01:36:22;7.17;;;6.50;;
2470;SDS011;1246;53.558;9.940;2022-07-24T01:38:47;6.60;;;6.00;;
2470;SDS011;1246;53.558;9.940;2022-07-24T01:41:13;7.33;;;6.50;;
2470;SDS011;1246;53.558;9.940;2022-07-24T01:43:38;7.43;;;6.77;;
2470;SDS011;1246;53.558;9.940;2022-07-24T01:46:04;12.97;;;7.00;;
2470;SDS011;1246;53.558;9.940;2022-07-24T01:48:29;6.73;;;6.10;;
2470;SDS011;1246;53.558;9.940;2022-07-24T01:50:54;6.37;;;5.77;;
2470;SDS011;1246;53.558;9.940;2022-07-24T01:53:20;7.97;;;6.10;;
2470;SDS011;1246;53.558;9.940;2022-07-24T01:55:45;7.07;;;6.37;;
2470;SDS011;1246;53.558;9.940;2022-07-24T01:58:11;6.83;;;6.13;;
2470;SDS011;1246;53.558;9.940;2022-07-24T02:00:36;6.50;;;5.80;;
2470;SDS011;1246;53.558;9.940;2022-07-24T02:03:02;6.80;;;6.17;;
2470;SDS011;1246;53.558;9.940;2022-07-24T02:05:27;7.10;;;6.40;;
2470;SDS011;1246;53.558;9.940;2022-07-24T02:07:57;9.97;;;6.90;;
2470;SDS011;1246;53.558;9.940;2022-07-24T02:10:24;7.90;;;6.20;;
2470;SDS011;1246;53.558;9.940;2022-07-24T02:12:50;6.70;;;6.10;;
2470;SDS011;1246;53.558;9.940;2022-07-24T02:15:15;6.50;;;5.90;;
2470;SDS011;1246;53.558;9.940;2022-07-24T02:17:45;7.87;;;7.17;;
2470;SDS011;1246;53.558;9.940;2022-07-24T02:20:14;7.73;;;6.80;;
2470;SDS011;1246;53.558;9.940;2022-07-24T02:22:39;6.60;;;6.07;;
2470;SDS011;1246;53.558;9.940;2022-07-24T02:25:05;6.83;;;6.23;;
2470;SDS011;1246;53.558;9.940;2022-07-24T02:27:31;7.10;;;6.40;;
2470;SDS011;1246;53.558;9.940;2022-07-24T02:29:56;7.30;;;6.57;;
2470;SDS011;1246;53.558;9.940;2022-07-24T02:32:22;6.77;;;6.07;;
2470;SDS011;1246;53.558;9.940;2022-07-24T02:34:47;8.27;;;7.03;;
2470;SDS011;1246;53.558;9.940;2022-07-24T02:37:12;7.30;;;6.60;;
2470;SDS011;1246;53.558;9.940;2022-07-24T02:39:38;7.13;;;6.43;;
2470;SDS011;1246;53.558;9.940;2022-07-24T02:42:03;7.17;;;6.47;;
2470;SDS011;1246;53.558;9.940;2022-07-24T02:44:28;7.30;;;6.60;;
2470;SDS011;1246;53.558;9.940;2022-07-24T02:46:54;7.70;;;6.30;;
2470;SDS011;1246;53.558;9.940;2022-07-24T02:49:19;7.77;;;6.90;;
2470;SDS011;1246;53.558;9.940;2022-07-24T02:51:45;7.47;;;6.73;;
2470;SDS011;1246;53.558;9.940;2022-07-24T02:54:10;7.07;;;6.30;;
2470;SDS011;1246;53.558;9.940;2022-07-24T02:56:35;7.43;;;6.30;;
2470;SDS011;1246;53.558;9.940;2022-07-24T02:59:02;10.90;;;7.37;;
2470;SDS011;1246;53.558;9.940;2022-07-24T03:01:27;7.87;;;7.07;;
2470;SDS011;1246;53.558;9.940;2022-07-24T03:03:53;8.70;;;7.60;;
2470;SDS011;1246;53.558;9.940;2022-07-24T03:06:18;6.40;;;5.90;;
2470;SDS011;1246;53.558;9.940;2022-07-24T03:08:43;7.70;;;6.90;;
2470;SDS011;1246;53.558;9.940;2022-07-24T03:11:09;7.40;;;6.70;;
2470;SDS011;1246;53.558;9.940;2022-07-24T03:13:34;7.20;;;6.60;;
2470;SDS011;1246;53.558;9.940;2022-07-24T03:15:59;10.80;;;7.17;;
2470;SDS011;1246;53.558;9.940;2022-07-24T03:18:25;7.70;;;7.00;;
2470;SDS011;1246;53.558;9.940;2022-07-24T03:20:50;8.30;;;7.30;;
2470;SDS011;1246;53.558;9.940;2022-07-24T03:23:16;7.80;;;7.10;;
2470;SDS011;1246;53.558;9.940;2022-07-24T03:25:41;9.10;;;6.90;;
2470;SDS011;1246;53.558;9.940;2022-07-24T03:28:07;9.30;;;7.70;;
2470;SDS011;1246;53.558;9.940;2022-07-24T03:30:32;8.40;;;7.33;;
2470;SDS011;1246;53.558;9.940;2022-07-24T03:32:58;8.13;;;7.33;;
2470;SDS011;1246;53.558;9.940;2022-07-24T03:35:23;8.33;;;7.63;;
2470;SDS011;1246;53.558;9.940;2022-07-24T03:37:48;7.50;;;6.60;;
2470;SDS011;1246;53.558;9.940;2022-07-24T03:40:14;7.30;;;6.70;;
2470;SDS011;1246;53.558;9.940;2022-07-24T03:42:39;6.90;;;6.30;;
2470;SDS011;1246;53.558;9.940;2022-07-24T03:45:05;7.67;;;6.83;;
2470;SDS011;1246;53.558;9.940;2022-07-24T03:47:30;6.97;;;6.27;;
2470;SDS011;1246;53.558;9.940;2022-07-24T03:49:56;7.10;;;6.40;;
2470;SDS011;1246;53.558;9.940;2022-07-24T03:52:21;7.80;;;7.10;;
2470;SDS011;1246;53.558;9.940;2022-07-24T03:54:47;8.10;;;6.47;;
2470;SDS011;1246;53.558;9.940;2022-07-24T03:57:12;6.60;;;6.00;;
2470;SDS011;1246;53.558;9.940;2022-07-24T03:59:37;6.93;;;6.07;;
2470;SDS011;1246;53.558;9.940;2022-07-24T04:02:03;6.97;;;6.37;;
2470;SDS011;1246;53.558;9.940;2022-07-24T04:04:28;7.80;;;6.30;;
2470;SDS011;1246;53.558;9.940;2022-07-24T04:06:54;7.27;;;6.10;;
2470;SDS011;1246;53.558;9.940;2022-07-24T04:09:19;8.50;;;5.93;;
2470;SDS011;1246;53.558;9.940;2022-07-24T04:11:45;5.80;;;5.30;;
2470;SDS011;1246;53.558;9.940;2022-07-24T04:14:11;6.07;;;5.20;;
2470;SDS011;1246;53.558;9.940;2022-07-24T04:16:37;9.23;;;5.73;;
2470;SDS011;1246;53.558;9.940;2022-07-24T04:19:02;5.97;;;5.47;;
2470;SDS011;1246;53.558;9.940;2022-07-24T04:21:28;5.83;;;5.33;;
2470;SDS011;1246;53.558;9.940;2022-07-24T04:23:53;5.63;;;5.13;;
2470;SDS011;1246;53.558;9.940;2022-07-24T04:26:18;4.73;;;4.33;;
2470;SDS011;1246;53.558;9.940;2022-07-24T04:28:44;5.00;;;4.60;;
2470;SDS011;1246;53.558;9.940;2022-07-24T04:31:09;4.37;;;4.03;;
2470;SDS011;1246;53.558;9.940;2022-07-24T04:33:35;5.20;;;4.70;;
2470;SDS011;1246;53.558;9.940;2022-07-24T04:36:01;4.63;;;4.23;;
2470;SDS011;1246;53.558;9.940;2022-07-24T04:38:28;4.50;;;4.10;;
2470;SDS011;1246;53.558;9.940;2022-07-24T04:40:53;4.63;;;4.33;;
2470;SDS011;1246;53.558;9.940;2022-07-24T04:43:19;4.87;;;4.47;;
2470;SDS011;1246;53.558;9.940;2022-07-24T04:45:44;4.77;;;4.10;;
2470;SDS011;1246;53.558;9.940;2022-07-24T04:48:09;5.00;;;4.50;;
2470;SDS011;1246;53.558;9.940;2022-07-24T04:50:35;6.33;;;4.43;;
2470;SDS011;1246;53.558;9.940;2022-07-24T04:53:00;4.23;;;3.87;;
2470;SDS011;1246;53.558;9.940;2022-07-24T04:55:25;5.03;;;4.60;;
2470;SDS011;1246;53.558;9.940;2022-07-24T04:57:51;4.50;;;4.10;;
2470;SDS011;1246;53.558;9.940;2022-07-24T05:00:16;4.27;;;3.90;;
2470;SDS011;1246;53.558;9.940;2022-07-24T05:02:42;4.20;;;3.90;;
2470;SDS011;1246;53.558;9.940;2022-07-24T05:05:07;4.40;;;3.80;;
2470;SDS011;1246;53.558;9.940;2022-07-24T05:07:32;4.67;;;4.17;;
2470;SDS011;1246;53.558;9.940;2022-07-24T05:09:58;5.03;;;4.10;;
2470;SDS011;1246;53.558;9.940;2022-07-24T05:12:24;3.93;;;3.63;;
2470;SDS011;1246;53.558;9.940;2022-07-24T05:14:50;4.20;;;3.80;;
2470;SDS011;1246;53.558;9.940;2022-07-24T05:17:15;5.40;;;3.73;;
2470;SDS011;1246;53.558;9.940;2022-07-24T05:19:40;4.43;;;4.03;;
2470;SDS011;1246;53.558;9.940;2022-07-24T05:22:06;4.20;;;3.80;;
2470;SDS011;1246;53.558;9.940;2022-07-24T05:24:31;4.00;;;3.70;;
2470;SDS011;1246;53.558;9.940;2022-07-24T05:26:57;3.73;;;3.30;;
2470;SDS011;1246;53.558;9.940;2022-07-24T05:29:22;4.20;;;3.80;;
2470;SDS011;1246;53.558;9.940;2022-07-24T05:31:48;3.80;;;3.40;;
2470;SDS011;1246;53.558;9.940;2022-07-24T05:34:14;4.10;;;3.80;;
2470;SDS011;1246;53.558;9.940;2022-07-24T05:36:39;3.90;;;3.60;;
2470;SDS011;1246;53.558;9.940;2022-07-24T05:39:05;5.00;;;4.00;;
2470;SDS011;1246;53.558;9.940;2022-07-24T05:41:30;3.70;;;3.20;;
2470;SDS011;1246;53.558;9.940;2022-07-24T05:43:56;4.60;;;3.40;;
2470;SDS011;1246;53.558;9.940;2022-07-24T05:46:21;4.37;;;3.50;;
2470;SDS011;1246;53.558;9.940;2022-07-24T05:48:47;3.97;;;3.50;;
2470;SDS011;1246;53.558;9.940;2022-07-24T05:51:12;3.57;;;3.27;;
2470;SDS011;1246;53.558;9.940;2022-07-24T05:53:37;3.43;;;3.13;;
2470;SDS011;1246;53.558;9.940;2022-07-24T05:56:03;5.40;;;3.40;;
2470;SDS011;1246;53.558;9.940;2022-07-24T05:58:29;4.03;;;3.70;;
2470;SDS011;1246;53.558;9.940;2022-07-24T06:00:54;3.70;;;3.40;;
2470;SDS011;1246;53.558;9.940;2022-07-24T06:03:19;3.70;;;3.40;;
2470;SDS011;1246;53.558;9.940;2022-07-24T06:05:45;3.63;;;3.33;;
2470;SDS011;1246;53.558;9.940;2022-07-24T06:08:11;4.60;;;3.47;;
2470;SDS011;1246;53.558;9.940;2022-07-24T06:10:36;3.73;;;3.30;;
2470;SDS011;1246;53.558;9.940;2022-07-24T06:13:02;3.60;;;3.30;;
2470;SDS011;1246;53.558;9.940;2022-07-24T06:15:27;3.93;;;3.63;;
2470;SDS011;1246;53.558;9.940;2022-07-24T06:17:53;3.60;;;3.30;;
2470;SDS011;1246;53.558;9.940;2022-07-24T06:20:19;3.70;;;3.20;;
2470;SDS011;1246;53.558;9.940;2022-07-24T06:22:44;3.53;;;3.23;;
2470;SDS011;1246;53.558;9.940;2022-07-24T06:25:10;3.53;;;3.23;;
2470;SDS011;1246;53.558;9.940;2022-07-24T06:27:42;3.30;;;3.10;;
2470;SDS011;1246;53.558;9.940;2022-07-24T06:30:12;3.40;;;3.10;;
2470;SDS011;1246;53.558;9.940;2022-07-24T06:32:41;5.90;;;3.23;;
2470;SDS011;1246;53.558;9.940;2022-07-24T06:35:07;3.37;;;3.07;;
2470;SDS011;1246;53.558;9.940;2022-07-24T06:37:33;3.63;;;3.00;;
2470;SDS011;1246;53.558;9.940;2022-07-24T06:39:58;3.30;;;3.00;;
2470;SDS011;1246;53.558;9.940;2022-07-24T06:42:24;3.50;;;3.20;;
2470;SDS011;1246;53.558;9.940;2022-07-24T06:44:49;3.43;;;3.13;;
2470;SDS011;1246;53.558;9.940;2022-07-24T06:47:14;3.10;;;2.80;;
2470;SDS011;1246;53.558;9.940;2022-07-24T06:49:40;3.23;;;3.03;;
2470;SDS011;1246;53.558;9.940;2022-07-24T06:52:05;3.10;;;2.90;;
2470;SDS011;1246;53.558;9.940;2022-07-24T06:54:30;3.07;;;2.77;;
2470;SDS011;1246;53.558;9.940;2022-07-24T06:56:56;4.60;;;3.00;;
2470;SDS011;1246;53.558;9.940;2022-07-24T06:59:21;3.40;;;3.10;;
2470;SDS011;1246;53.558;9.940;2022-07-24T07:01:46;5.73;;;3.00;;
2470;SDS011;1246;53.558;9.940;2022-07-24T07:04:12;3.43;;;3.20;;
2470;SDS011;1246;53.558;9.940;2022-07-24T07:06:37;3.50;;;3.20;;
2470;SDS011;1246;53.558;9.940;2022-07-24T07:09:03;3.33;;;3.03;;
2470;SDS011;1246;53.558;9.940;2022-07-24T07:11:28;4.27;;;3.10;;
2470;SDS011;1246;53.558;9.940;2022-07-24T07:13:53;4.63;;;3.00;;
2470;SDS011;1246;53.558;9.940;2022-07-24T07:16:19;3.20;;;2.90;;
2470;SDS011;1246;53.558;9.940;2022-07-24T07:18:44;3.50;;;3.20;;
2470;SDS011;1246;53.558;9.940;2022-07-24T07:21:09;3.50;;;3.20;;
2470;SDS011;1246;53.558;9.940;2022-07-24T07:23:35;3.37;;;3.07;;
2470;SDS011;1246;53.558;9.940;2022-07-24T07:26:00;3.30;;;3.00;;
2470;SDS011;1246;53.558;9.940;2022-07-24T07:28:26;3.03;;;2.73;;
2470;SDS011;1246;53.558;9.940;2022-07-24T07:30:51;3.40;;;3.07;;
2470;SDS011;1246;53.558;9.940;2022-07-24T07:33:17;3.40;;;3.10;;
2470;SDS011;1246;53.558;9.940;2022-07-24T07:35:42;3.20;;;2.90;;
2470;SDS011;1246;53.558;9.940;2022-07-24T07:38:08;3.63;;;3.33;;
2470;SDS011;1246;53.558;9.940;2022-07-24T07:40:33;3.80;;;3.40;;
2470;SDS011;1246;53.558;9.940;2022-07-24T07:42:58;4.47;;;3.10;;
2470;SDS011;1246;53.558;9.940;2022-07-24T07:45:24;3.23;;;2.90;;
2470;SDS011;1246;53.558;9.940;2022-07-24T07:47:49;4.40;;;3.57;;
2470;SDS011;1246;53.558;9.940;2022-07-24T07:50:14;3.77;;;3.37;;
2470;SDS011;1246;53.558;9.940;2022-07-24T07:52:40;3.83;;;3.30;;
2470;SDS011;1246;53.558;9.940;2022-07-24T07:55:05;3.50;;;3.30;;
2470;SDS011;1246;53.558;9.940;2022-07-24T07:57:32;3.30;;;3.03;;
2470;SDS011;1246;53.558;9.940;2022-07-24T07:59:57;3.23;;;3.00;;
2470;SDS011;1246;53.558;9.940;2022-07-24T08:02:22;3.67;;;3.10;;
2470;SDS011;1246;53.558;9.940;2022-07-24T08:04:48;3.70;;;2.83;;
2470;SDS011;1246;53.558;9.940;2022-07-24T08:07:13;3.27;;;2.97;;
2470;SDS011;1246;53.558;9.940;2022-07-24T08:09:38;2.90;;;2.70;;
2470;SDS011;1246;53.558;9.940;2022-07-24T08:12:04;3.60;;;3.00;;
2470;SDS011;1246;53.558;9.940;2022-07-24T08:14:30;5.23;;;2.80;;
2470;SDS011;1246;53.558;9.940;2022-07-24T08:16:55;3.50;;;3.07;;
2470;SDS011;1246;53.558;9.940;2022-07-24T08:19:21;4.80;;;3.47;;
2470;SDS011;1246;53.558;9.940;2022-07-24T08:21:46;3.27;;;2.97;;
2470;SDS011;1246;53.558;9.940;2022-07-24T08:24:12;3.40;;;3.10;;
2470;SDS011;1246;53.558;9.940;2022-07-24T08:26:38;2.90;;;2.70;;
2470;SDS011;1246;53.558;9.940;2022-07-24T08:29:03;3.00;;;2.80;;
2470;SDS011;1246;53.558;9.940;2022-07-24T08:31:29;3.07;;;2.80;;
2470;SDS011;1246;53.558;9.940;2022-07-24T08:33:54;3.70;;;3.03;;
2470;SDS011;1246;53.558;9.940;2022-07-24T08:36:20;3.47;;;3.17;;
2470;SDS011;1246;53.558;9.940;2022-07-24T08:38:45;3.07;;;2.87;;
2470;SDS011;1246;53.558;9.940;2022-07-24T08:41:11;3.60;;;2.97;;
2470;SDS011;1246;53.558;9.940;2022-07-24T08:43:37;3.57;;;3.27;;
2470;SDS011;1246;53.558;9.940;2022-07-24T08:46:03;3.47;;;3.17;;
2470;SDS011;1246;53.558;9.940;2022-07-24T08:48:29;3.10;;;2.90;;
2470;SDS011;1246;53.558;9.940;2022-07-24T08:50:54;3.80;;;3.30;;
2470;SDS011;1246;53.558;9.940;2022-07-24T08:53:20;3.47;;;3.17;;
2470;SDS011;1246;53.558;9.940;2022-07-24T08:55:47;3.60;;;3.30;;
2470;SDS011;1246;53.558;9.940;2022-07-24T08:58:13;3.33;;;3.07;;
2470;SDS011;1246;53.558;9.940;2022-07-24T09:00:38;3.20;;;3.00;;
2470;SDS011;1246;53.558;9.940;2022-07-24T09:03:03;3.90;;;3.60;;
2470;SDS011;1246;53.558;9.940;2022-07-24T09:05:29;3.60;;;3.30;;
2470;SDS011;1246;53.558;9.940;2022-07-24T09:08:07;3.07;;;2.83;;
2470;SDS011;1246;53.558;9.940;2022-07-24T09:10:33;3.13;;;2.90;;
2470;SDS011;1246;53.558;9.940;2022-07-24T09:12:59;3.27;;;2.97;;
2470;SDS011;1246;53.558;9.940;2022-07-24T09:15:42;3.20;;;3.00;;
2470;SDS011;1246;53.558;9.940;2022-07-24T09:18:10;5.13;;;2.87;;
2470;SDS011;1246;53.558;9.940;2022-07-24T09:20:54;3.40;;;3.20;;
2470;SDS011;1246;53.558;9.940;2022-07-24T09:23:19;6.43;;;3.27;;
2470;SDS011;1246;53.558;9.940;2022-07-24T09:25:50;3.27;;;3.07;;
2470;SDS011;1246;53.558;9.940;2022-07-24T09:28:19;3.50;;;3.20;;
2470;SDS011;1246;53.558;9.940;2022-07-24T09:30:45;3.60;;;3.30;;
2470;SDS011;1246;53.558;9.940;2022-07-24T09:35:39;3.63;;;3.20;;
2470;SDS011;1246;53.558;9.940;2022-07-24T09:38:09;5.87;;;3.60;;
2470;SDS011;1246;53.558;9.940;2022-07-24T09:40:37;3.73;;;3.53;;
2470;SDS011;1246;53.558;9.940;2022-07-24T09:43:12;5.33;;;3.53;;
2470;SDS011;1246;53.558;9.940;2022-07-24T09:46:24;3.30;;;3.07;;
2470;SDS011;1246;53.558;9.940;2022-07-24T09:48:31;4.17;;;3.60;;
2470;SDS011;1246;53.558;9.940;2022-07-24T09:51:02;3.80;;;3.50;;
2470;SDS011;1246;53.558;9.940;2022-07-24T09:53:34;4.43;;;3.90;;
2470;SDS011;1246;53.558;9.940;2022-07-24T09:58:27;4.50;;;4.20;;
2470;SDS011;1246;53.558;9.940;2022-07-24T10:00:54;4.60;;;4.20;;
2470;SDS011;1246;53.558;9.940;2022-07-24T10:03:23;4.63;;;4.23;;
2470;SDS011;1246;53.558;9.940;2022-07-24T10:05:49;4.27;;;3.97;;
2470;SDS011;1246;53.558;9.940;2022-07-24T10:08:19;5.10;;;4.70;;
2470;SDS011;1246;53.558;9.940;2022-07-24T10:10:46;5.17;;;4.77;;
2470;SDS011;1246;53.558;9.940;2022-07-24T10:13:12;4.30;;;4.00;;
2470;SDS011;1246;53.558;9.940;2022-07-24T10:15:52;5.13;;;4.73;;
2470;SDS011;1246;53.558;9.940;2022-07-24T10:18:19;5.77;;;4.70;;
2470;SDS011;1246;53.558;9.940;2022-07-24T10:20:47;5.50;;;4.70;;
2470;SDS011;1246;53.558;9.940;2022-07-24T10:23:20;5.23;;;4.80;;
2470;SDS011;1246;53.558;9.940;2022-07-24T10:25:55;4.67;;;4.30;;
2470;SDS011;1246;53.558;9.940;2022-07-24T10:28:34;4.93;;;4.50;;
2470;SDS011;1246;53.558;9.940;2022-07-24T10:31:02;5.23;;;4.40;;
2470;SDS011;1246;53.558;9.940;2022-07-24T10:33:29;5.30;;;4.83;;
2470;SDS011;1246;53.558;9.940;2022-07-24T10:35:55;4.80;;;4.40;;
2470;SDS011;1246;53.558;9.940;2022-07-24T10:38:27;6.27;;;4.77;;
2470;SDS011;1246;53.558;9.940;2022-07-24T10:40:55;6.33;;;4.80;;
2470;SDS011;1246;53.558;9.940;2022-07-24T10:43:27;4.73;;;4.37;;
2470;SDS011;1246;53.558;9.940;2022-07-24T10:56:14;5.30;;;4.90;;
2470;SDS011;1246;53.558;9.940;2022-07-24T11:01:26;4.60;;;4.20;;
2470;SDS011;1246;53.558;9.940;2022-07-24T11:04:00;5.37;;;4.87;;
2470;SDS011;1246;53.558;9.940;2022-07-24T11:09:14;6.30;;;5.47;;
2470;SDS011;1246;53.558;9.940;2022-07-24T11:11:41;5.60;;;4.80;;
2470;SDS011;1246;53.558;9.940;2022-07-24T11:14:17;5.13;;;4.73;;
2470;SDS011;1246;53.558;9.940;2022-07-24T11:16:45;5.63;;;5.00;;
2470;SDS011;1246;53.558;9.940;2022-07-24T11:21:36;5.63;;;5.20;;
2470;SDS011;1246;53.558;9.940;2022-07-24T11:32:07;5.60;;;5.10;;
2470;SDS011;1246;53.558;9.940;2022-07-24T11:34:35;5.60;;;5.10;;
2470;SDS011;1246;53.558;9.940;2022-07-24T11:37:03;6.70;;;6.10;;
2470;SDS011;1246;53.558;9.940;2022-07-24T11:39:30;6.23;;;5.73;;
2470;SDS011;1246;53.558;9.940;2022-07-24T11:41:58;5.87;;;5.47;;
2470;SDS011;1246;53.558;9.940;2022-07-24T11:44:29;7.23;;;6.20;;
2470;SDS011;1246;53.558;9.940;2022-07-24T11:46:59;6.23;;;5.73;;
2470;SDS011;1246;53.558;9.940;2022-07-24T11:49:30;6.37;;;5.87;;
2470;SDS011;1246;53.558;9.940;2022-07-24T11:51:55;6.30;;;5.80;;
2470;SDS011;1246;53.558;9.940;2022-07-24T11:54:24;7.00;;;5.70;;
2470;SDS011;1246;53.558;9.940;2022-07-24T11:56:54;6.97;;;6.03;;
2470;SDS011;1246;53.558;9.940;2022-07-24T11:59:24;6.43;;;5.80;;
2470;SDS011;1246;53.558;9.940;2022-07-24T12:01:54;6.40;;;5.87;;
2470;SDS011;1246;53.558;9.940;2022-07-24T12:04:30;6.30;;;5.70;;
2470;SDS011;1246;53.558;9.940;2022-07-24T12:06:55;6.70;;;6.10;;
2470;SDS011;1246;53.558;9.940;2022-07-24T12:09:20;7.07;;;6.47;;
2470;SDS011;1246;53.558;9.940;2022-07-24T12:11:46;7.73;;;6.93;;
2470;SDS011;1246;53.558;9.940;2022-07-24T12:14:15;6.83;;;6.10;;
2470;SDS011;1246;53.558;9.940;2022-07-24T12:16:41;7.10;;;6.40;;
2470;SDS011;1246;53.558;9.940;2022-07-24T12:19:11;7.30;;;6.50;;
2470;SDS011;1246;53.558;9.940;2022-07-24T12:21:40;6.60;;;6.00;;
2470;SDS011;1246;53.558;9.940;2022-07-24T12:24:06;7.47;;;5.80;;
2470;SDS011;1246;53.558;9.940;2022-07-24T12:26:32;7.30;;;6.27;;
2470;SDS011;1246;53.558;9.940;2022-07-24T12:29:10;8.67;;;7.80;;
2470;SDS011;1246;53.558;9.940;2022-07-24T12:31:36;8.30;;;7.50;;
2470;SDS011;1246;53.558;9.940;2022-07-24T12:34:01;6.97;;;6.33;;
2470;SDS011;1246;53.558;9.940;2022-07-24T12:36:27;8.10;;;7.00;;
2470;SDS011;1246;53.558;9.940;2022-07-24T12:38:53;7.37;;;6.23;;
2470;SDS011;1246;53.558;9.940;2022-07-24T12:41:20;6.30;;;5.80;;
2470;SDS011;1246;53.558;9.940;2022-07-24T12:46:43;6.57;;;5.97;;
2470;SDS011;1246;53.558;9.940;2022-07-24T12:49:09;9.70;;;6.83;;
2470;SDS011;1246;53.558;9.940;2022-07-24T12:51:52;7.73;;;7.10;;
2470;SDS011;1246;53.558;9.940;2022-07-24T12:54:19;6.60;;;5.90;;
2470;SDS011;1246;53.558;9.940;2022-07-24T12:56:44;7.60;;;6.90;;
2470;SDS011;1246;53.558;9.940;2022-07-24T12:59:20;8.07;;;6.83;;
2470;SDS011;1246;53.558;9.940;2022-07-24T13:01:54;6.67;;;6.13;;
2470;SDS011;1246;53.558;9.940;2022-07-24T13:04:21;7.20;;;6.53;;
2470;SDS011;1246;53.558;9.940;2022-07-24T13:06:50;6.60;;;6.00;;
2470;SDS011;1246;53.558;9.940;2022-07-24T13:09:17;6.60;;;6.00;;
2470;SDS011;1246;53.558;9.940;2022-07-24T13:11:43;6.43;;;5.93;;
2470;SDS011;1246;53.558;9.940;2022-07-24T13:14:10;6.10;;;5.60;;
2470;SDS011;1246;53.558;9.940;2022-07-24T13:16:37;6.67;;;6.17;;
2470;SDS011;1246;53.558;9.940;2022-07-24T13:19:04;6.40;;;5.80;;
2470;SDS011;1246;53.558;9.940;2022-07-24T13:21:31;6.00;;;5.50;;
2470;SDS011;1246;53.558;9.940;2022-07-24T13:23:56;6.40;;;5.80;;
2470;SDS011;1246;53.558;9.940;2022-07-24T13:26:22;6.63;;;6.10;;
2470;SDS011;1246;53.558;9.940;2022-07-24T13:28:48;6.67;;;5.40;;
2470;SDS011;1246;53.558;9.940;2022-07-24T13:31:14;6.10;;;5.60;;
2470;SDS011;1246;53.558;9.940;2022-07-24T13:33:40;7.03;;;6.53;;
2470;SDS011;1246;53.558;9.940;2022-07-24T13:36:05;7.20;;;6.57;;
2470;SDS011;1246;53.558;9.940;2022-07-24T13:38:31;11.13;;;7.10;;
2470;SDS011;1246;53.558;9.940;2022-07-24T13:40:57;7.17;;;5.90;;
2470;SDS011;1246;53.558;9.940;2022-07-24T13:43:22;7.23;;;5.47;;
2470;SDS011;1246;53.558;9.940;2022-07-24T13:45:47;6.43;;;5.80;;
2470;SDS011;1246;53.558;9.940;2022-07-24T13:48:13;7.23;;;6.53;;
2470;SDS011;1246;53.558;9.940;2022-07-24T13:50:38;7.90;;;6.40;;
2470;SDS011;1246;53.558;9.940;2022-07-24T13:53:04;6.93;;;6.33;;
2470;SDS011;1246;53.558;9.940;2022-07-24T13:55:30;6.57;;;6.07;;
2470;SDS011;1246;53.558;9.940;2022-07-24T13:57:56;6.87;;;6.17;;
2470;SDS011;1246;53.558;9.940;2022-07-24T14:00:22;6.53;;;6.00;;
2470;SDS011;1246;53.558;9.940;2022-07-24T14:02:49;6.30;;;5.70;;
2470;SDS011;1246;53.558;9.940;2022-07-24T14:05:14;5.83;;;5.43;;
2470;SDS011;1246;53.558;9.940;2022-07-24T14:07:41;6.23;;;5.73;;
2470;SDS011;1246;53.558;9.940;2022-07-24T14:10:06;6.73;;;6.13;;
2470;SDS011;1246;53.558;9.940;2022-07-24T14:12:32;6.70;;;6.10;;
2470;SDS011;1246;53.558;9.940;2022-07-24T14:14:57;8.47;;;7.60;;
2470;SDS011;1246;53.558;9.940;2022-07-24T14:17:23;6.07;;;5.67;;
2470;SDS011;1246;53.558;9.940;2022-07-24T14:19:48;6.70;;;6.10;;
2470;SDS011;1246;53.558;9.940;2022-07-24T14:22:14;7.13;;;6.53;;
2470;SDS011;1246;53.558;9.940;2022-07-24T14:24:39;6.37;;;5.97;;
2470;SDS011;1246;53.558;9.940;2022-07-24T14:27:04;6.23;;;5.80;;
2470;SDS011;1246;53.558;9.940;2022-07-24T14:29:30;7.30;;;6.20;;
2470;SDS011;1246;53.558;9.940;2022-07-24T14:31:55;8.73;;;7.03;;
2470;SDS011;1246;53.558;9.940;2022-07-24T14:34:20;7.43;;;6.70;;
2470;SDS011;1246;53.558;9.940;2022-07-24T14:36:46;7.00;;;6.40;;
2470;SDS011;1246;53.558;9.940;2022-07-24T14:39:11;7.20;;;6.60;;
2470;SDS011;1246;53.558;9.940;2022-07-24T14:41:36;6.73;;;6.23;;
2470;SDS011;1246;53.558;9.940;2022-07-24T14:44:03;6.40;;;5.87;;
2470;SDS011;1246;53.558;9.940;2022-07-24T14:46:29;7.40;;;6.77;;
2470;SDS011;1246;53.558;9.940;2022-07-24T14:48:54;8.50;;;5.40;;
2470;SDS011;1246;53.558;9.940;2022-07-24T14:51:19;6.20;;;5.60;;
2470;SDS011;1246;53.558;9.940;2022-07-24T14:53:45;6.30;;;5.80;;
2470;SDS011;1246;53.558;9.940;2022-07-24T14:56:10;6.10;;;5.60;;
2470;SDS011;1246;53.558;9.940;2022-07-24T14:58:35;6.40;;;5.80;;
2470;SDS011;1246;53.558;9.940;2022-07-24T15:01:01;6.20;;;5.17;;
2470;SDS011;1246;53.558;9.940;2022-07-24T15:03:27;6.33;;;5.37;;
2470;SDS011;1246;53.558;9.940;2022-07-24T15:05:52;5.97;;;5.57;;
2470;SDS011;1246;53.558;9.940;2022-07-24T15:08:17;7.30;;;5.70;;
2470;SDS011;1246;53.558;9.940;2022-07-24T15:10:43;5.60;;;5.10;;
2470;SDS011;1246;53.558;9.940;2022-07-24T15:13:08;6.33;;;5.80;;
2470;SDS011;1246;53.558;9.940;2022-07-24T15:15:34;6.00;;;5.60;;
2470;SDS011;1246;53.558;9.940;2022-07-24T15:17:59;6.90;;;6.30;;
2470;SDS011;1246;53.558;9.940;2022-07-24T15:20:25;6.67;;;6.07;;
2470;SDS011;1246;53.558;9.940;2022-07-24T15:22:50;6.63;;;6.03;;
2470;SDS011;1246;53.558;9.940;2022-07-24T15:25:15;5.87;;;5.23;;
2470;SDS011;1246;53.558;9.940;2022-07-24T15:27:41;8.40;;;5.60;;
2470;SDS011;1246;53.558;9.940;2022-07-24T15:30:06;5.70;;;5.20;;
2470;SDS011;1246;53.558;9.940;2022-07-24T15:32:32;5.93;;;5.33;;
2470;SDS011;1246;53.558;9.940;2022-07-24T15:34:57;7.00;;;6.30;;
2470;SDS011;1246;53.558;9.940;2022-07-24T15:37:24;6.50;;;5.90;;
2470;SDS011;1246;53.558;9.940;2022-07-24T15:39:50;6.53;;;5.93;;
2470;SDS011;1246;53.558;9.940;2022-07-24T15:42:15;6.20;;;5.70;;
2470;SDS011;1246;53.558;9.940;2022-07-24T15:44:40;6.10;;;5.60;;